sensor_id;sensor_type;location;lat;lon;timestamp;pressure;altitude;pressure_sealevel;temperature;humidity
29569;BME280;16501;51.462;14.346;2022-07-23T00:00:10;100249.50;;;21.27;72.28
29569;BME280;16501;51.462;14.346;2022-07-23T00:02:35;100275.38;;;21.29;72.67
29569;BME280;16501;51.462;14.346;2022-07-23T00:05:01;100284.38;;;21.34;72.71
29569;BME280;16501;51.462;14.346;2022-07-23T00:07:26;100273.09;;;21.15;73.24
29569;BME280;16501;51.462;14.346;2022-07-23T00:09:51;100263.09;;;21.08;73.00
29569;BME280;16501;51.462;14.346;2022-07-23T00:12:17;100274.72;;;21.23;73.37
29569;BME280;16501;51.462;14.346;2022-07-23T00:14:42;100261.56;;;21.07;73.20
29569;BME280;16501;51.462;14.346;2022-07-23T00:17:07;100260.44;;;20.97;72.96
29569;BME280;16501;51.462;14.346;2022-07-23T00:19:32;100283.38;;;21.18;72.83
29569;BME280;16501;51.462;14.346;2022-07-23T00:21:58;100276.69;;;21.15;73.08
29569;BME280;16501;51.462;14.346;2022-07-23T00:24:23;100270.00;;;20.99;72.46
29569;BME280;16501;51.462;14.346;2022-07-23T00:26:48;100267.38;;;21.01;72.97
29569;BME280;16501;51.462;14.346;2022-07-23T00:29:14;100273.06;;;21.01;73.85
29569;BME280;16501;51.462;14.346;2022-07-23T00:31:39;100278.78;;;21.01;74.45
29569;BME280;16501;51.462;14.346;2022-07-23T00:34:04;100286.34;;;21.12;74.18
29569;BME280;16501;51.462;14.346;2022-07-23T00:36:30;100284.16;;;21.05;74.18
29569;BME280;16501;51.462;14.346;2022-07-23T00:38:56;100282.59;;;20.90;73.87
29569;BME280;16501;51.462;14.346;2022-07-23T00:41:21;100281.91;;;20.84;73.91
29569;BME280;16501;51.462;14.346;2022-07-23T00:43:47;100270.94;;;20.75;74.40
29569;BME280;16501;51.462;14.346;2022-07-23T00:46:12;100270.03;;;20.67;74.56
29569;BME280;16501;51.462;14.346;2022-07-23T00:48:37;100268.75;;;20.68;74.47
29569;BME280;16501;51.462;14.346;2022-07-23T00:51:03;100280.16;;;20.68;74.65
29569;BME280;16501;51.462;14.346;2022-07-23T00:53:28;100277.28;;;20.68;74.68
29569;BME280;16501;51.462;14.346;2022-07-23T00:55:53;100292.19;;;20.74;74.51
29569;BME280;16501;51.462;14.346;2022-07-23T00:58:19;100269.06;;;20.64;74.54
29569;BME280;16501;51.462;14.346;2022-07-23T01:00:44;100258.59;;;20.53;74.97
29569;BME280;16501;51.462;14.346;2022-07-23T01:03:10;100268.47;;;20.52;75.03
29569;BME280;16501;51.462;14.346;2022-07-23T01:05:35;100276.59;;;20.62;75.26
29569;BME280;16501;51.462;14.346;2022-07-23T01:08:01;100284.38;;;20.61;75.39
29569;BME280;16501;51.462;14.346;2022-07-23T01:10:26;100263.84;;;20.49;75.94
29569;BME280;16501;51.462;14.346;2022-07-23T01:13:04;100266.50;;;20.61;75.69
29569;BME280;16501;51.462;14.346;2022-07-23T01:15:30;100269.91;;;20.59;76.17
29569;BME280;16501;51.462;14.346;2022-07-23T01:17:55;100256.63;;;20.48;76.69
29569;BME280;16501;51.462;14.346;2022-07-23T01:20:21;100262.00;;;20.52;76.77
29569;BME280;16501;51.462;14.346;2022-07-23T01:22:48;100243.88;;;20.36;76.84
29569;BME280;16501;51.462;14.346;2022-07-23T01:25:13;100253.03;;;20.29;77.34
29569;BME280;16501;51.462;14.346;2022-07-23T01:27:39;100247.13;;;20.27;77.68
29569;BME280;16501;51.462;14.346;2022-07-23T01:30:05;100257.66;;;20.32;77.33
29569;BME280;16501;51.462;14.346;2022-07-23T01:32:31;100245.66;;;20.20;77.77
29569;BME280;16501;51.462;14.346;2022-07-23T01:34:56;100254.28;;;20.14;78.35
29569;BME280;16501;51.462;14.346;2022-07-23T01:37:21;100218.13;;;19.96;77.71
29569;BME280;16501;51.462;14.346;2022-07-23T01:39:47;100208.72;;;20.01;77.75
29569;BME280;16501;51.462;14.346;2022-07-23T01:42:12;100224.84;;;20.12;77.56
29569;BME280;16501;51.462;14.346;2022-07-23T01:44:37;100239.44;;;20.22;77.27
29569;BME280;16501;51.462;14.346;2022-07-23T01:47:03;100215.09;;;20.07;76.85
29569;BME280;16501;51.462;14.346;2022-07-23T01:49:28;100211.25;;;20.05;77.06
29569;BME280;16501;51.462;14.346;2022-07-23T01:51:53;100206.09;;;20.03;77.48
29569;BME280;16501;51.462;14.346;2022-07-23T01:54:26;100211.00;;;20.03;77.08
29569;BME280;16501;51.462;14.346;2022-07-23T01:56:51;100188.34;;;19.97;77.38
29569;BME280;16501;51.462;14.346;2022-07-23T01:59:17;100187.34;;;19.94;77.67
29569;BME280;16501;51.462;14.346;2022-07-23T02:01:42;100199.63;;;20.03;77.68
29569;BME280;16501;51.462;14.346;2022-07-23T02:04:07;100184.13;;;19.85;77.77
29569;BME280;16501;51.462;14.346;2022-07-23T02:06:33;100188.56;;;19.80;77.99
29569;BME280;16501;51.462;14.346;2022-07-23T02:08:58;100185.06;;;19.74;77.86
29569;BME280;16501;51.462;14.346;2022-07-23T02:11:23;100209.94;;;19.87;78.21
29569;BME280;16501;51.462;14.346;2022-07-23T02:13:48;100165.38;;;19.57;77.94
29569;BME280;16501;51.462;14.346;2022-07-23T02:16:14;100188.56;;;19.80;77.97
29569;BME280;16501;51.462;14.346;2022-07-23T02:18:39;100177.34;;;19.69;78.33
29569;BME280;16501;51.462;14.346;2022-07-23T02:21:04;100205.97;;;19.76;78.73
29569;BME280;16501;51.462;14.346;2022-07-23T02:23:29;100185.19;;;19.63;78.88
29569;BME280;16501;51.462;14.346;2022-07-23T02:25:55;100172.13;;;19.54;79.07
29569;BME280;16501;51.462;14.346;2022-07-23T02:28:20;100200.94;;;19.64;78.75
29569;BME280;16501;51.462;14.346;2022-07-23T02:30:45;100211.94;;;19.73;78.60
29569;BME280;16501;51.462;14.346;2022-07-23T02:33:10;100185.34;;;19.51;78.78
29569;BME280;16501;51.462;14.346;2022-07-23T02:35:36;100196.25;;;19.66;78.61
29569;BME280;16501;51.462;14.346;2022-07-23T02:38:01;100186.50;;;19.62;79.23
29569;BME280;16501;51.462;14.346;2022-07-23T02:40:26;100195.81;;;19.62;79.46
29569;BME280;16501;51.462;14.346;2022-07-23T02:42:52;100162.28;;;19.36;80.33
29569;BME280;16501;51.462;14.346;2022-07-23T02:45:17;100164.84;;;19.39;79.85
29569;BME280;16501;51.462;14.346;2022-07-23T02:47:42;100177.59;;;19.52;80.08
29569;BME280;16501;51.462;14.346;2022-07-23T02:50:07;100160.22;;;19.36;81.12
29569;BME280;16501;51.462;14.346;2022-07-23T02:52:33;100181.19;;;19.52;80.95
29569;BME280;16501;51.462;14.346;2022-07-23T02:54:58;100152.78;;;19.33;82.14
29569;BME280;16501;51.462;14.346;2022-07-23T02:57:24;100160.47;;;19.38;81.95
29569;BME280;16501;51.462;14.346;2022-07-23T02:59:49;100164.16;;;19.33;82.51
29569;BME280;16501;51.462;14.346;2022-07-23T03:02:14;100150.31;;;19.24;82.83
29569;BME280;16501;51.462;14.346;2022-07-23T03:04:40;100160.59;;;19.27;83.08
29569;BME280;16501;51.462;14.346;2022-07-23T03:07:07;100140.56;;;19.19;83.24
29569;BME280;16501;51.462;14.346;2022-07-23T03:09:32;100150.78;;;19.28;83.54
29569;BME280;16501;51.462;14.346;2022-07-23T03:11:58;100148.94;;;19.31;83.30
29569;BME280;16501;51.462;14.346;2022-07-23T03:14:23;100148.78;;;19.23;83.69
29569;BME280;16501;51.462;14.346;2022-07-23T03:16:48;100139.16;;;19.26;83.71
29569;BME280;16501;51.462;14.346;2022-07-23T03:19:14;100133.94;;;19.11;83.92
29569;BME280;16501;51.462;14.346;2022-07-23T03:21:40;100158.59;;;19.22;83.64
29569;BME280;16501;51.462;14.346;2022-07-23T03:24:08;100152.28;;;19.10;83.81
29569;BME280;16501;51.462;14.346;2022-07-23T03:26:34;100153.53;;;19.15;83.88
29569;BME280;16501;51.462;14.346;2022-07-23T03:28:59;100145.75;;;19.15;84.18
29569;BME280;16501;51.462;14.346;2022-07-23T03:31:26;100148.78;;;19.23;83.72
29569;BME280;16501;51.462;14.346;2022-07-23T03:33:51;100142.78;;;19.08;84.12
29569;BME280;16501;51.462;14.346;2022-07-23T03:36:16;100145.22;;;19.17;84.14
29569;BME280;16501;51.462;14.346;2022-07-23T03:38:42;100148.31;;;19.19;84.24
29569;BME280;16501;51.462;14.346;2022-07-23T03:41:07;100150.47;;;19.13;84.40
29569;BME280;16501;51.462;14.346;2022-07-23T03:43:33;100154.47;;;19.23;84.38
29569;BME280;16501;51.462;14.346;2022-07-23T03:45:58;100140.63;;;19.14;84.47
29569;BME280;16501;51.462;14.346;2022-07-23T03:48:23;100137.53;;;19.12;84.34
29569;BME280;16501;51.462;14.346;2022-07-23T03:50:48;100117.19;;;19.08;84.62
29569;BME280;16501;51.462;14.346;2022-07-23T03:53:14;100128.66;;;19.21;84.77
29569;BME280;16501;51.462;14.346;2022-07-23T03:55:39;100123.66;;;19.27;85.02
29569;BME280;16501;51.462;14.346;2022-07-23T03:58:04;100106.06;;;19.10;85.29
29569;BME280;16501;51.462;14.346;2022-07-23T04:00:29;100117.75;;;19.25;84.91
29569;BME280;16501;51.462;14.346;2022-07-23T04:02:55;100096.59;;;19.20;84.86
29569;BME280;16501;51.462;14.346;2022-07-23T04:05:20;100109.22;;;19.25;84.85
29569;BME280;16501;51.462;14.346;2022-07-23T04:07:45;100105.75;;;19.32;85.25
29569;BME280;16501;51.462;14.346;2022-07-23T04:10:10;100085.78;;;19.19;85.70
29569;BME280;16501;51.462;14.346;2022-07-23T04:12:36;100090.69;;;19.18;86.11
29569;BME280;16501;51.462;14.346;2022-07-23T04:15:01;100107.84;;;19.32;86.43
29569;BME280;16501;51.462;14.346;2022-07-23T04:17:27;100114.50;;;19.34;86.16
29569;BME280;16501;51.462;14.346;2022-07-23T04:19:53;100087.72;;;19.30;87.14
29569;BME280;16501;51.462;14.346;2022-07-23T04:22:18;100104.75;;;19.30;87.47
29569;BME280;16501;51.462;14.346;2022-07-23T04:24:43;100106.50;;;19.33;86.53
29569;BME280;16501;51.462;14.346;2022-07-23T04:27:09;100108.47;;;19.25;85.81
29569;BME280;16501;51.462;14.346;2022-07-23T04:29:34;100105.63;;;19.25;85.16
29569;BME280;16501;51.462;14.346;2022-07-23T04:31:59;100133.78;;;19.41;84.81
29569;BME280;16501;51.462;14.346;2022-07-23T04:34:24;100101.31;;;19.18;84.34
29569;BME280;16501;51.462;14.346;2022-07-23T04:36:52;100116.28;;;19.37;84.51
29569;BME280;16501;51.462;14.346;2022-07-23T04:39:17;100112.66;;;19.37;83.96
29569;BME280;16501;51.462;14.346;2022-07-23T04:41:42;100100.38;;;19.29;84.80
29569;BME280;16501;51.462;14.346;2022-07-23T04:44:07;100103.13;;;19.34;84.95
29569;BME280;16501;51.462;14.346;2022-07-23T04:46:33;100113.44;;;19.37;85.00
29569;BME280;16501;51.462;14.346;2022-07-23T04:48:58;100109.22;;;19.25;85.49
29569;BME280;16501;51.462;14.346;2022-07-23T04:51:23;100102.06;;;19.18;85.20
29569;BME280;16501;51.462;14.346;2022-07-23T04:53:48;100127.19;;;19.33;85.40
29569;BME280;16501;51.462;14.346;2022-07-23T04:56:14;100123.03;;;19.34;84.94
29569;BME280;16501;51.462;14.346;2022-07-23T04:58:39;100124.50;;;19.22;84.98
29569;BME280;16501;51.462;14.346;2022-07-23T05:01:05;100139.41;;;19.28;85.52
29569;BME280;16501;51.462;14.346;2022-07-23T05:03:30;100128.94;;;19.36;85.47
29569;BME280;16501;51.462;14.346;2022-07-23T05:05:55;100138.72;;;19.41;85.57
29569;BME280;16501;51.462;14.346;2022-07-23T05:08:21;100128.31;;;19.44;84.86
29569;BME280;16501;51.462;14.346;2022-07-23T05:10:46;100125.72;;;19.46;85.44
29569;BME280;16501;51.462;14.346;2022-07-23T05:13:11;100130.00;;;19.52;85.55
29569;BME280;16501;51.462;14.346;2022-07-23T05:15:37;100125.41;;;19.49;85.08
29569;BME280;16501;51.462;14.346;2022-07-23T05:18:02;100126.88;;;19.56;85.34
29569;BME280;16501;51.462;14.346;2022-07-23T05:20:27;100127.22;;;19.66;85.17
29569;BME280;16501;51.462;14.346;2022-07-23T05:22:53;100111.81;;;19.61;84.90
29569;BME280;16501;51.462;14.346;2022-07-23T05:25:18;100128.94;;;19.74;84.83
29569;BME280;16501;51.462;14.346;2022-07-23T05:27:43;100129.44;;;19.73;85.04
29569;BME280;16501;51.462;14.346;2022-07-23T05:30:09;100089.09;;;19.42;85.25
29569;BME280;16501;51.462;14.346;2022-07-23T05:32:34;100105.09;;;19.58;85.35
29569;BME280;16501;51.462;14.346;2022-07-23T05:35:02;100116.00;;;19.73;85.06
29569;BME280;16501;51.462;14.346;2022-07-23T05:37:27;100110.91;;;19.66;85.02
29569;BME280;16501;51.462;14.346;2022-07-23T05:39:52;100117.94;;;19.65;84.90
29569;BME280;16501;51.462;14.346;2022-07-23T05:42:17;100117.09;;;19.70;85.17
29569;BME280;16501;51.462;14.346;2022-07-23T05:44:43;100067.75;;;19.49;85.18
29569;BME280;16501;51.462;14.346;2022-07-23T05:47:08;100096.56;;;19.58;85.62
29569;BME280;16501;51.462;14.346;2022-07-23T05:49:33;100107.25;;;19.52;87.14
29569;BME280;16501;51.462;14.346;2022-07-23T05:52:03;100127.63;;;19.56;86.79
29569;BME280;16501;51.462;14.346;2022-07-23T05:54:28;100133.09;;;19.54;87.07
29569;BME280;16501;51.462;14.346;2022-07-23T05:56:53;100124.25;;;19.58;86.43
29569;BME280;16501;51.462;14.346;2022-07-23T05:59:19;100117.66;;;19.50;86.14
29569;BME280;16501;51.462;14.346;2022-07-23T06:01:44;100139.94;;;19.65;86.54
29569;BME280;16501;51.462;14.346;2022-07-23T06:04:10;100134.69;;;19.69;86.34
29569;BME280;16501;51.462;14.346;2022-07-23T06:06:35;100143.22;;;19.88;86.06
29569;BME280;16501;51.462;14.346;2022-07-23T06:09:00;100144.97;;;19.91;85.92
29569;BME280;16501;51.462;14.346;2022-07-23T06:11:25;100144.88;;;19.96;86.21
29569;BME280;16501;51.462;14.346;2022-07-23T06:13:51;100126.78;;;19.81;85.29
29569;BME280;16501;51.462;14.346;2022-07-23T06:16:16;100145.31;;;19.87;85.31
29569;BME280;16501;51.462;14.346;2022-07-23T06:18:41;100132.69;;;19.64;85.43
29569;BME280;16501;51.462;14.346;2022-07-23T06:21:06;100133.94;;;19.68;85.54
29569;BME280;16501;51.462;14.346;2022-07-23T06:23:32;100111.97;;;19.50;85.40
29569;BME280;16501;51.462;14.346;2022-07-23T06:25:57;100171.81;;;19.76;85.24
29569;BME280;16501;51.462;14.346;2022-07-23T06:28:22;100164.91;;;19.72;85.17
29569;BME280;16501;51.462;14.346;2022-07-23T06:30:47;100147.53;;;19.56;84.75
29569;BME280;16501;51.462;14.346;2022-07-23T06:33:13;100185.34;;;19.70;84.52
29569;BME280;16501;51.462;14.346;2022-07-23T06:35:38;100185.97;;;19.63;84.64
29569;BME280;16501;51.462;14.346;2022-07-23T06:38:04;100196.72;;;19.70;84.46
29569;BME280;16501;51.462;14.346;2022-07-23T06:40:29;100196.72;;;19.70;84.65
29569;BME280;16501;51.462;14.346;2022-07-23T06:42:54;100160.28;;;19.50;84.43
29569;BME280;16501;51.462;14.346;2022-07-23T06:45:19;100197.97;;;19.75;84.21
29569;BME280;16501;51.462;14.346;2022-07-23T06:47:45;100193.50;;;19.80;84.31
29569;BME280;16501;51.462;14.346;2022-07-23T06:50:10;100178.00;;;19.81;84.48
29569;BME280;16501;51.462;14.346;2022-07-23T06:52:35;100180.03;;;19.80;84.21
29569;BME280;16501;51.462;14.346;2022-07-23T06:55:01;100194.97;;;19.86;83.96
29569;BME280;16501;51.462;14.346;2022-07-23T06:57:26;100205.66;;;19.80;83.50
29569;BME280;16501;51.462;14.346;2022-07-23T06:59:52;100204.72;;;19.72;83.71
29569;BME280;16501;51.462;14.346;2022-07-23T07:02:17;100202.63;;;19.72;83.50
29569;BME280;16501;51.462;14.346;2022-07-23T07:04:43;100207.34;;;19.70;83.51
29569;BME280;16501;51.462;14.346;2022-07-23T07:07:08;100207.88;;;19.68;83.70
29569;BME280;16501;51.462;14.346;2022-07-23T07:09:33;100175.81;;;19.49;83.85
29569;BME280;16501;51.462;14.346;2022-07-23T07:11:58;100210.66;;;19.74;83.24
29569;BME280;16501;51.462;14.346;2022-07-23T07:14:24;100223.81;;;19.77;82.44
29569;BME280;16501;51.462;14.346;2022-07-23T07:16:49;100225.66;;;19.74;82.35
29569;BME280;16501;51.462;14.346;2022-07-23T07:19:14;100205.56;;;19.48;81.73
29569;BME280;16501;51.462;14.346;2022-07-23T07:21:39;100222.94;;;19.63;81.52
29569;BME280;16501;51.462;14.346;2022-07-23T07:24:05;100232.53;;;19.60;81.38
29569;BME280;16501;51.462;14.346;2022-07-23T07:26:31;100223.91;;;19.47;81.52
29569;BME280;16501;51.462;14.346;2022-07-23T07:28:56;100237.16;;;19.63;81.48
29569;BME280;16501;51.462;14.346;2022-07-23T07:31:22;100228.31;;;19.67;80.31
29569;BME280;16501;51.462;14.346;2022-07-23T07:33:47;100214.56;;;19.71;79.75
29569;BME280;16501;51.462;14.346;2022-07-23T07:36:12;100212.56;;;19.85;78.75
29569;BME280;16501;51.462;14.346;2022-07-23T07:38:38;100185.72;;;19.99;78.67
29569;BME280;16501;51.462;14.346;2022-07-23T07:41:03;100195.56;;;20.30;77.48
29569;BME280;16501;51.462;14.346;2022-07-23T07:43:28;100210.44;;;20.69;76.17
29569;BME280;16501;51.462;14.346;2022-07-23T07:45:54;100196.19;;;20.69;74.62
29569;BME280;16501;51.462;14.346;2022-07-23T07:48:19;100183.19;;;20.87;74.85
29569;BME280;16501;51.462;14.346;2022-07-23T07:50:44;100186.25;;;20.89;74.41
29569;BME280;16501;51.462;14.346;2022-07-23T07:53:09;100183.72;;;20.72;74.41
29569;BME280;16501;51.462;14.346;2022-07-23T07:55:35;100194.47;;;21.06;74.29
29569;BME280;16501;51.462;14.346;2022-07-23T07:58:00;100175.16;;;21.25;74.65
29569;BME280;16501;51.462;14.346;2022-07-23T08:00:25;100182.91;;;21.52;73.16
29569;BME280;16501;51.462;14.346;2022-07-23T08:02:52;100182.00;;;21.70;70.56
29569;BME280;16501;51.462;14.346;2022-07-23T08:05:22;100189.19;;;21.84;70.76
29569;BME280;16501;51.462;14.346;2022-07-23T08:07:48;100178.47;;;21.98;69.96
29569;BME280;16501;51.462;14.346;2022-07-23T08:10:14;100180.28;;;22.09;69.50
29569;BME280;16501;51.462;14.346;2022-07-23T08:12:41;100198.09;;;22.23;68.08
29569;BME280;16501;51.462;14.346;2022-07-23T08:15:08;100189.41;;;22.29;67.81
29569;BME280;16501;51.462;14.346;2022-07-23T08:17:34;100155.47;;;22.25;69.16
29569;BME280;16501;51.462;14.346;2022-07-23T08:19:59;100141.94;;;22.26;67.33
29569;BME280;16501;51.462;14.346;2022-07-23T08:22:24;100187.06;;;22.69;66.50
29569;BME280;16501;51.462;14.346;2022-07-23T08:24:50;100189.47;;;22.86;66.77
29569;BME280;16501;51.462;14.346;2022-07-23T08:27:15;100187.63;;;22.96;66.23
29569;BME280;16501;51.462;14.346;2022-07-23T08:29:40;100182.78;;;23.12;66.04
29569;BME280;16501;51.462;14.346;2022-07-23T08:32:05;100167.97;;;23.22;65.15
29569;BME280;16501;51.462;14.346;2022-07-23T08:34:31;100184.25;;;23.42;65.00
29569;BME280;16501;51.462;14.346;2022-07-23T08:36:56;100175.53;;;23.48;64.93
29569;BME280;16501;51.462;14.346;2022-07-23T08:39:21;100197.88;;;23.65;62.01
29569;BME280;16501;51.462;14.346;2022-07-23T08:41:47;100176.91;;;23.70;62.85
29569;BME280;16501;51.462;14.346;2022-07-23T08:44:15;100166.25;;;23.70;63.51
29569;BME280;16501;51.462;14.346;2022-07-23T08:46:41;100165.13;;;23.81;61.87
29569;BME280;16501;51.462;14.346;2022-07-23T08:49:06;100165.13;;;23.81;62.60
29569;BME280;16501;51.462;14.346;2022-07-23T08:51:32;100181.13;;;23.77;61.37
29569;BME280;16501;51.462;14.346;2022-07-23T08:53:58;100171.34;;;23.64;62.45
29569;BME280;16501;51.462;14.346;2022-07-23T08:56:23;100183.88;;;23.98;62.41
29569;BME280;16501;51.462;14.346;2022-07-23T08:58:48;100173.16;;;23.98;61.40
29569;BME280;16501;51.462;14.346;2022-07-23T09:01:14;100175.50;;;24.07;60.43
29569;BME280;16501;51.462;14.346;2022-07-23T09:03:39;100180.66;;;24.24;60.46
29569;BME280;16501;51.462;14.346;2022-07-23T09:06:04;100199.94;;;24.24;60.01
29569;BME280;16501;51.462;14.346;2022-07-23T09:08:38;100198.81;;;24.19;59.93
29569;BME280;16501;51.462;14.346;2022-07-23T09:11:08;100184.25;;;24.17;59.61
29569;BME280;16501;51.462;14.346;2022-07-23T09:16:04;100200.09;;;23.95;60.27
29569;BME280;16501;51.462;14.346;2022-07-23T09:18:30;100188.47;;;23.93;60.12
29569;BME280;16501;51.462;14.346;2022-07-23T09:21:25;100186.09;;;23.76;61.04
29569;BME280;16501;51.462;14.346;2022-07-23T09:24:04;100165.69;;;23.28;61.47
29569;BME280;16501;51.462;14.346;2022-07-23T09:29:23;100191.06;;;23.31;63.47
29569;BME280;16501;51.462;14.346;2022-07-23T09:32:00;100181.75;;;23.31;63.35
29569;BME280;16501;51.462;14.346;2022-07-23T09:34:31;100200.91;;;23.51;64.19
29569;BME280;16501;51.462;14.346;2022-07-23T09:37:17;100197.47;;;23.53;62.82
29569;BME280;16501;51.462;14.346;2022-07-23T09:39:44;100206.69;;;23.67;62.30
29569;BME280;16501;51.462;14.346;2022-07-23T09:42:14;100217.59;;;23.76;61.17
29569;BME280;16501;51.462;14.346;2022-07-23T09:44:42;100214.97;;;23.94;61.59
29569;BME280;16501;51.462;14.346;2022-07-23T09:47:08;100222.63;;;24.06;60.34
29569;BME280;16501;51.462;14.346;2022-07-23T09:49:33;100224.78;;;24.21;61.24
29569;BME280;16501;51.462;14.346;2022-07-23T09:52:00;100222.06;;;24.08;59.29
29569;BME280;16501;51.462;14.346;2022-07-23T09:54:32;100230.09;;;24.17;59.58
29569;BME280;16501;51.462;14.346;2022-07-23T09:57:02;100229.16;;;24.15;59.25
29569;BME280;16501;51.462;14.346;2022-07-23T09:59:29;100243.06;;;24.03;58.96
29569;BME280;16501;51.462;14.346;2022-07-23T10:01:57;100246.31;;;23.99;59.60
29569;BME280;16501;51.462;14.346;2022-07-23T10:04:24;100228.50;;;23.85;60.00
29569;BME280;16501;51.462;14.346;2022-07-23T10:06:53;100250.72;;;24.08;59.64
29569;BME280;16501;51.462;14.346;2022-07-23T10:09:23;100248.06;;;24.18;59.48
29569;BME280;16501;51.462;14.346;2022-07-23T10:11:50;100230.09;;;24.17;59.74
29569;BME280;16501;51.462;14.346;2022-07-23T10:14:16;100240.63;;;24.38;58.89
29569;BME280;16501;51.462;14.346;2022-07-23T10:16:41;100234.72;;;24.36;58.06
29569;BME280;16501;51.462;14.346;2022-07-23T10:19:07;100228.19;;;24.27;58.25
29569;BME280;16501;51.462;14.346;2022-07-23T10:21:46;100238.53;;;24.31;58.83
29569;BME280;16501;51.462;14.346;2022-07-23T10:27:26;100255.94;;;24.48;58.28
29569;BME280;16501;51.462;14.346;2022-07-23T10:30:09;100260.34;;;24.49;56.79
29569;BME280;16501;51.462;14.346;2022-07-23T10:33:05;100267.59;;;24.89;55.98
29569;BME280;16501;51.462;14.346;2022-07-23T10:35:44;100256.28;;;25.06;58.83
29569;BME280;16501;51.462;14.346;2022-07-23T10:38:23;100258.38;;;25.36;56.00
29569;BME280;16501;51.462;14.346;2022-07-23T10:41:00;100255.72;;;25.31;56.33
29569;BME280;16501;51.462;14.346;2022-07-23T10:43:26;100259.34;;;25.16;55.48
29569;BME280;16501;51.462;14.346;2022-07-23T10:45:52;100250.72;;;25.23;55.95
29569;BME280;16501;51.462;14.346;2022-07-23T10:48:18;100265.41;;;25.51;56.47
29569;BME280;16501;51.462;14.346;2022-07-23T10:51:05;100265.56;;;25.61;54.85
29569;BME280;16501;51.462;14.346;2022-07-23T10:53:53;100240.13;;;25.57;54.80
29569;BME280;16501;51.462;14.346;2022-07-23T10:59:21;100269.50;;;25.81;55.07
29569;BME280;16501;51.462;14.346;2022-07-23T11:01:47;100273.50;;;25.85;55.45
29569;BME280;16501;51.462;14.346;2022-07-23T11:04:12;100243.81;;;25.42;55.68
29569;BME280;16501;51.462;14.346;2022-07-23T11:09:38;100268.69;;;25.39;56.22
29569;BME280;16501;51.462;14.346;2022-07-23T11:15:15;100282.31;;;25.16;56.81
29569;BME280;16501;51.462;14.346;2022-07-23T11:25:12;100261.72;;;25.58;55.66
29569;BME280;16501;51.462;14.346;2022-07-23T11:27:42;100273.13;;;25.25;56.96
29569;BME280;16501;51.462;14.346;2022-07-23T11:30:10;100278.28;;;25.19;58.35
29569;BME280;16501;51.462;14.346;2022-07-23T11:32:40;100268.19;;;24.87;58.70
29569;BME280;16501;51.462;14.346;2022-07-23T11:35:20;100293.59;;;24.68;59.99
29569;BME280;16501;51.462;14.346;2022-07-23T11:37:45;100295.09;;;24.53;61.04
29569;BME280;16501;51.462;14.346;2022-07-23T11:40:13;100312.47;;;24.47;62.20
29569;BME280;16501;51.462;14.346;2022-07-23T11:45:16;100307.47;;;24.33;64.19
29569;BME280;16501;51.462;14.346;2022-07-23T11:47:41;100283.19;;;24.18;62.63
29569;BME280;16501;51.462;14.346;2022-07-23T11:50:06;100300.00;;;24.22;62.45
29569;BME280;16501;51.462;14.346;2022-07-23T11:52:32;100301.16;;;24.19;64.35
29569;BME280;16501;51.462;14.346;2022-07-23T11:55:03;100300.75;;;24.15;65.30
29569;BME280;16501;51.462;14.346;2022-07-23T11:57:31;100316.19;;;24.04;64.52
29569;BME280;16501;51.462;14.346;2022-07-23T12:00:18;100304.31;;;24.00;67.46
29569;BME280;16501;51.462;14.346;2022-07-23T12:02:51;100321.00;;;24.09;63.94
29569;BME280;16501;51.462;14.346;2022-07-23T12:05:25;100298.84;;;24.09;63.37
29569;BME280;16501;51.462;14.346;2022-07-23T12:07:52;100309.16;;;24.20;63.60
29569;BME280;16501;51.462;14.346;2022-07-23T12:10:27;100311.84;;;24.26;63.88
29569;BME280;16501;51.462;14.346;2022-07-23T12:12:57;100310.09;;;24.15;62.72
29569;BME280;16501;51.462;14.346;2022-07-23T12:15:26;100306.06;;;24.03;62.79
29569;BME280;16501;51.462;14.346;2022-07-23T12:17:54;100305.69;;;23.99;62.66
29569;BME280;16501;51.462;14.346;2022-07-23T12:20:23;100316.72;;;23.95;63.34
29569;BME280;16501;51.462;14.346;2022-07-23T12:22:51;100318.47;;;23.98;63.20
29569;BME280;16501;51.462;14.346;2022-07-23T12:25:19;100327.66;;;24.12;63.95
29569;BME280;16501;51.462;14.346;2022-07-23T12:27:45;100325.56;;;24.12;63.21
29569;BME280;16501;51.462;14.346;2022-07-23T12:30:26;100329.03;;;24.11;63.28
29569;BME280;16501;51.462;14.346;2022-07-23T12:32:53;100321.31;;;23.90;63.85
29569;BME280;16501;51.462;14.346;2022-07-23T12:35:21;100312.34;;;23.94;64.58
29569;BME280;16501;51.462;14.346;2022-07-23T12:37:48;100311.22;;;24.04;63.64
29569;BME280;16501;51.462;14.346;2022-07-23T12:40:35;100321.56;;;24.07;63.35
29569;BME280;16501;51.462;14.346;2022-07-23T12:43:07;100315.47;;;24.11;63.06
29569;BME280;16501;51.462;14.346;2022-07-23T12:45:47;100320.06;;;24.22;63.37
29569;BME280;16501;51.462;14.346;2022-07-23T12:48:21;100288.94;;;24.26;62.95
29569;BME280;16501;51.462;14.346;2022-07-23T12:50:52;100303.47;;;24.28;63.28
29569;BME280;16501;51.462;14.346;2022-07-23T12:53:24;100308.59;;;24.29;62.05
29569;BME280;16501;51.462;14.346;2022-07-23T12:55:56;100234.31;;;23.64;62.57
29569;BME280;16501;51.462;14.346;2022-07-23T12:58:24;100319.06;;;24.12;62.19
29569;BME280;16501;51.462;14.346;2022-07-23T13:00:57;100334.53;;;24.08;62.38
29569;BME280;16501;51.462;14.346;2022-07-23T13:03:25;100335.44;;;23.96;63.10
29569;BME280;16501;51.462;14.346;2022-07-23T13:05:50;100331.97;;;23.89;64.27